sensor_id;sensor_type;location;lat;lon;timestamp;P1;durP1;ratioP1;P2;durP2;ratioP2
962;SDS011;469;48.770;9.176;2022-10-30T00:01:39;14.57;;;5.72;;
962;SDS011;469;48.770;9.176;2022-10-30T00:04:12;22.92;;;7.13;;
962;SDS011;469;48.770;9.176;2022-10-30T00:06:41;22.15;;;8.15;;
962;SDS011;469;48.770;9.176;2022-10-30T00:09:12;34.40;;;8.52;;
962;SDS011;469;48.770;9.176;2022-10-30T00:14:23;30.02;;;10.25;;
962;SDS011;469;48.770;9.176;2022-10-30T00:17:07;28.95;;;10.55;;
962;SDS011;469;48.770;9.176;2022-10-30T00:19:39;27.70;;;8.55;;
962;SDS011;469;48.770;9.176;2022-10-30T00:22:09;28.80;;;8.80;;
962;SDS011;469;48.770;9.176;2022-10-30T00:24:40;28.20;;;9.55;;
962;SDS011;469;48.770;9.176;2022-10-30T00:27:23;31.33;;;10.10;;
962;SDS011;469;48.770;9.176;2022-10-30T00:29:55;29.08;;;11.30;;
962;SDS011;469;48.770;9.176;2022-10-30T00:32:26;27.77;;;11.27;;
962;SDS011;469;48.770;9.176;2022-10-30T00:34:53;28.45;;;10.50;;
962;SDS011;469;48.770;9.176;2022-10-30T00:37:25;36.60;;;11.75;;
962;SDS011;469;48.770;9.176;2022-10-30T00:40:02;34.40;;;11.50;;
962;SDS011;469;48.770;9.176;2022-10-30T00:42:30;43.22;;;11.48;;
962;SDS011;469;48.770;9.176;2022-10-30T00:44:59;29.73;;;11.15;;
962;SDS011;469;48.770;9.176;2022-10-30T00:47:36;41.17;;;11.35;;
962;SDS011;469;48.770;9.176;2022-10-30T00:50:20;22.65;;;10.98;;
962;SDS011;469;48.770;9.176;2022-10-30T00:56:02;40.97;;;12.43;;
962;SDS011;469;48.770;9.176;2022-10-30T00:58:38;24.98;;;10.93;;
962;SDS011;469;48.770;9.176;2022-10-30T01:01:15;29.83;;;11.25;;
962;SDS011;469;48.770;9.176;2022-10-30T01:03:49;33.20;;;11.27;;
962;SDS011;469;48.770;9.176;2022-10-30T01:06:21;30.98;;;10.38;;
962;SDS011;469;48.770;9.176;2022-10-30T01:08:51;31.98;;;11.95;;
962;SDS011;469;48.770;9.176;2022-10-30T01:11:20;27.92;;;10.30;;
962;SDS011;469;48.770;9.176;2022-10-30T01:13:53;32.90;;;11.55;;
962;SDS011;469;48.770;9.176;2022-10-30T01:16:31;50.10;;;10.38;;
962;SDS011;469;48.770;9.176;2022-10-30T01:19:07;36.60;;;10.55;;
962;SDS011;469;48.770;9.176;2022-10-30T01:21:43;24.45;;;10.27;;
962;SDS011;469;48.770;9.176;2022-10-30T01:24:17;21.73;;;9.57;;
962;SDS011;469;48.770;9.176;2022-10-30T01:26:59;29.45;;;11.10;;
962;SDS011;469;48.770;9.176;2022-10-30T01:29:43;19.45;;;9.02;;
962;SDS011;469;48.770;9.176;2022-10-30T01:32:33;28.85;;;9.98;;
962;SDS011;469;48.770;9.176;2022-10-30T01:35:07;29.38;;;11.15;;
962;SDS011;469;48.770;9.176;2022-10-30T01:37:37;24.55;;;10.18;;
962;SDS011;469;48.770;9.176;2022-10-30T01:40:11;24.85;;;9.55;;
962;SDS011;469;48.770;9.176;2022-10-30T01:42:43;21.42;;;9.43;;
962;SDS011;469;48.770;9.176;2022-10-30T01:45:13;24.98;;;8.65;;
962;SDS011;469;48.770;9.176;2022-10-30T01:48:12;27.90;;;9.43;;
962;SDS011;469;48.770;9.176;2022-10-30T01:50:43;26.60;;;10.20;;
962;SDS011;469;48.770;9.176;2022-10-30T01:53:21;28.27;;;9.25;;
962;SDS011;469;48.770;9.176;2022-10-30T01:55:57;25.83;;;10.30;;
962;SDS011;469;48.770;9.176;2022-10-30T01:58:56;26.05;;;9.80;;
962;SDS011;469;48.770;9.176;2022-10-30T02:01:27;20.90;;;8.95;;
962;SDS011;469;48.770;9.176;2022-10-30T02:04:07;22.02;;;10.15;;
962;SDS011;469;48.770;9.176;2022-10-30T02:06:44;25.27;;;9.65;;
962;SDS011;469;48.770;9.176;2022-10-30T02:09:18;19.95;;;8.88;;
962;SDS011;469;48.770;9.176;2022-10-30T02:11:52;24.27;;;9.30;;
962;SDS011;469;48.770;9.176;2022-10-30T02:14:26;20.98;;;8.55;;
962;SDS011;469;48.770;9.176;2022-10-30T02:17:04;20.80;;;7.43;;
962;SDS011;469;48.770;9.176;2022-10-30T02:19:36;19.33;;;5.22;;
962;SDS011;469;48.770;9.176;2022-10-30T02:22:09;19.45;;;6.00;;
962;SDS011;469;48.770;9.176;2022-10-30T02:24:40;15.23;;;4.65;;
962;SDS011;469;48.770;9.176;2022-10-30T02:27:10;17.13;;;5.00;;
962;SDS011;469;48.770;9.176;2022-10-30T02:29:37;17.80;;;4.75;;
962;SDS011;469;48.770;9.176;2022-10-30T02:32:06;14.70;;;4.43;;
962;SDS011;469;48.770;9.176;2022-10-30T02:34:41;14.18;;;4.90;;
962;SDS011;469;48.770;9.176;2022-10-30T02:37:13;17.67;;;7.20;;
962;SDS011;469;48.770;9.176;2022-10-30T02:39:47;15.20;;;5.97;;
962;SDS011;469;48.770;9.176;2022-10-30T02:42:17;21.67;;;5.22;;
962;SDS011;469;48.770;9.176;2022-10-30T02:44:44;20.75;;;5.50;;
962;SDS011;469;48.770;9.176;2022-10-30T02:47:11;15.10;;;3.90;;
962;SDS011;469;48.770;9.176;2022-10-30T02:49:39;17.50;;;4.30;;
962;SDS011;469;48.770;9.176;2022-10-30T02:52:06;20.55;;;4.63;;
962;SDS011;469;48.770;9.176;2022-10-30T02:54:39;15.45;;;5.35;;
962;SDS011;469;48.770;9.176;2022-10-30T02:57:07;24.20;;;5.95;;
962;SDS011;469;48.770;9.176;2022-10-30T02:59:36;17.45;;;5.47;;
962;SDS011;469;48.770;9.176;2022-10-30T03:02:05;16.98;;;4.78;;
962;SDS011;469;48.770;9.176;2022-10-30T03:04:35;18.15;;;5.28;;
962;SDS011;469;48.770;9.176;2022-10-30T03:07:19;15.35;;;3.50;;
962;SDS011;469;48.770;9.176;2022-10-30T03:09:48;20.23;;;4.55;;
962;SDS011;469;48.770;9.176;2022-10-30T03:12:16;17.55;;;4.65;;
962;SDS011;469;48.770;9.176;2022-10-30T03:14:43;15.00;;;4.70;;
962;SDS011;469;48.770;9.176;2022-10-30T03:17:10;19.90;;;4.15;;
962;SDS011;469;48.770;9.176;2022-10-30T03:19:43;16.17;;;4.95;;
962;SDS011;469;48.770;9.176;2022-10-30T03:22:15;18.52;;;4.25;;
962;SDS011;469;48.770;9.176;2022-10-30T03:24:45;15.88;;;4.70;;
962;SDS011;469;48.770;9.176;2022-10-30T03:27:18;20.27;;;4.32;;
962;SDS011;469;48.770;9.176;2022-10-30T03:29:48;16.63;;;3.72;;
962;SDS011;469;48.770;9.176;2022-10-30T03:32:16;16.05;;;4.60;;
962;SDS011;469;48.770;9.176;2022-10-30T03:34:45;19.35;;;4.72;;
962;SDS011;469;48.770;9.176;2022-10-30T03:37:14;15.15;;;3.80;;
962;SDS011;469;48.770;9.176;2022-10-30T03:39:41;16.70;;;5.05;;
962;SDS011;469;48.770;9.176;2022-10-30T03:42:13;11.65;;;3.78;;
962;SDS011;469;48.770;9.176;2022-10-30T03:44:42;16.63;;;4.75;;
962;SDS011;469;48.770;9.176;2022-10-30T03:47:09;18.13;;;4.82;;
962;SDS011;469;48.770;9.176;2022-10-30T03:49:43;16.05;;;5.05;;
962;SDS011;469;48.770;9.176;2022-10-30T03:52:13;18.15;;;5.05;;
962;SDS011;469;48.770;9.176;2022-10-30T03:54:40;21.52;;;6.07;;
962;SDS011;469;48.770;9.176;2022-10-30T03:57:09;13.43;;;5.07;;
962;SDS011;469;48.770;9.176;2022-10-30T03:59:36;18.52;;;5.40;;
962;SDS011;469;48.770;9.176;2022-10-30T04:02:11;20.85;;;5.45;;
962;SDS011;469;48.770;9.176;2022-10-30T04:04:46;14.40;;;4.50;;
962;SDS011;469;48.770;9.176;2022-10-30T04:07:16;13.18;;;4.25;;
962;SDS011;469;48.770;9.176;2022-10-30T04:09:45;17.98;;;4.32;;
962;SDS011;469;48.770;9.176;2022-10-30T04:12:13;20.80;;;4.30;;
962;SDS011;469;48.770;9.176;2022-10-30T04:14:41;16.15;;;5.05;;
962;SDS011;469;48.770;9.176;2022-10-30T04:17:16;11.57;;;4.93;;
962;SDS011;469;48.770;9.176;2022-10-30T04:19:46;12.27;;;4.00;;
962;SDS011;469;48.770;9.176;2022-10-30T04:22:22;16.33;;;5.63;;
962;SDS011;469;48.770;9.176;2022-10-30T04:24:51;19.45;;;5.22;;
962;SDS011;469;48.770;9.176;2022-10-30T04:27:18;13.90;;;4.80;;
962;SDS011;469;48.770;9.176;2022-10-30T04:29:53;15.23;;;4.35;;
962;SDS011;469;48.770;9.176;2022-10-30T04:32:26;13.82;;;5.18;;
962;SDS011;469;48.770;9.176;2022-10-30T04:34:55;21.05;;;4.15;;
962;SDS011;469;48.770;9.176;2022-10-30T04:37:27;17.92;;;5.05;;
962;SDS011;469;48.770;9.176;2022-10-30T04:40:14;17.00;;;5.43;;
962;SDS011;469;48.770;9.176;2022-10-30T04:42:45;14.35;;;4.60;;
962;SDS011;469;48.770;9.176;2022-10-30T04:45:17;16.83;;;5.13;;
962;SDS011;469;48.770;9.176;2022-10-30T04:47:48;17.35;;;4.75;;
962;SDS011;469;48.770;9.176;2022-10-30T04:50:18;16.90;;;5.00;;
962;SDS011;469;48.770;9.176;2022-10-30T04:52:57;18.50;;;5.10;;
962;SDS011;469;48.770;9.176;2022-10-30T04:55:25;13.43;;;4.55;;
962;SDS011;469;48.770;9.176;2022-10-30T04:57:57;18.35;;;5.13;;
962;SDS011;469;48.770;9.176;2022-10-30T05:00:33;17.27;;;4.95;;
962;SDS011;469;48.770;9.176;2022-10-30T05:03:03;20.42;;;5.43;;
962;SDS011;469;48.770;9.176;2022-10-30T05:05:33;17.48;;;4.88;;
962;SDS011;469;48.770;9.176;2022-10-30T05:08:03;18.25;;;4.50;;
962;SDS011;469;48.770;9.176;2022-10-30T05:10:33;21.70;;;5.53;;
962;SDS011;469;48.770;9.176;2022-10-30T05:13:03;15.48;;;4.97;;
962;SDS011;469;48.770;9.176;2022-10-30T05:15:36;15.23;;;4.70;;
962;SDS011;469;48.770;9.176;2022-10-30T05:18:09;15.93;;;5.00;;
962;SDS011;469;48.770;9.176;2022-10-30T05:20:49;24.58;;;4.72;;
962;SDS011;469;48.770;9.176;2022-10-30T05:23:16;15.82;;;5.20;;
962;SDS011;469;48.770;9.176;2022-10-30T05:25:44;19.15;;;4.68;;
962;SDS011;469;48.770;9.176;2022-10-30T05:28:13;15.40;;;5.05;;
962;SDS011;469;48.770;9.176;2022-10-30T05:30:41;10.73;;;4.30;;
962;SDS011;469;48.770;9.176;2022-10-30T05:33:10;14.48;;;5.28;;
962;SDS011;469;48.770;9.176;2022-10-30T05:35:42;17.27;;;5.57;;
962;SDS011;469;48.770;9.176;2022-10-30T05:38:14;20.73;;;5.88;;
962;SDS011;469;48.770;9.176;2022-10-30T05:40:44;22.08;;;5.30;;
962;SDS011;469;48.770;9.176;2022-10-30T05:43:12;13.43;;;5.20;;
962;SDS011;469;48.770;9.176;2022-10-30T05:45:40;19.33;;;6.50;;
962;SDS011;469;48.770;9.176;2022-10-30T05:50:56;16.88;;;7.22;;
962;SDS011;469;48.770;9.176;2022-10-30T05:53:26;21.50;;;7.43;;
962;SDS011;469;48.770;9.176;2022-10-30T05:55:58;13.73;;;4.97;;
962;SDS011;469;48.770;9.176;2022-10-30T05:58:51;20.80;;;5.80;;
962;SDS011;469;48.770;9.176;2022-10-30T06:01:23;22.77;;;5.65;;
962;SDS011;469;48.770;9.176;2022-10-30T06:03:53;18.08;;;6.22;;
962;SDS011;469;48.770;9.176;2022-10-30T06:06:28;26.45;;;6.45;;
962;SDS011;469;48.770;9.176;2022-10-30T06:08:55;16.23;;;5.97;;
962;SDS011;469;48.770;9.176;2022-10-30T06:11:23;14.73;;;5.25;;
962;SDS011;469;48.770;9.176;2022-10-30T06:13:53;12.93;;;4.80;;
962;SDS011;469;48.770;9.176;2022-10-30T06:16:20;17.77;;;5.63;;
962;SDS011;469;48.770;9.176;2022-10-30T06:18:47;16.58;;;5.18;;
962;SDS011;469;48.770;9.176;2022-10-30T06:21:14;21.23;;;6.15;;
962;SDS011;469;48.770;9.176;2022-10-30T06:23:44;13.07;;;5.53;;
962;SDS011;469;48.770;9.176;2022-10-30T06:26:11;13.40;;;5.35;;
962;SDS011;469;48.770;9.176;2022-10-30T06:28:38;17.35;;;5.45;;
962;SDS011;469;48.770;9.176;2022-10-30T06:31:05;14.02;;;5.95;;
962;SDS011;469;48.770;9.176;2022-10-30T06:33:32;13.52;;;5.60;;
962;SDS011;469;48.770;9.176;2022-10-30T06:35:59;20.42;;;7.70;;
962;SDS011;469;48.770;9.176;2022-10-30T06:38:26;20.27;;;6.03;;
962;SDS011;469;48.770;9.176;2022-10-30T06:40:55;16.15;;;5.57;;
962;SDS011;469;48.770;9.176;2022-10-30T06:43:22;13.98;;;5.47;;
962;SDS011;469;48.770;9.176;2022-10-30T06:45:49;17.35;;;6.15;;
962;SDS011;469;48.770;9.176;2022-10-30T06:48:16;15.10;;;5.28;;
962;SDS011;469;48.770;9.176;2022-10-30T06:50:43;13.23;;;5.35;;
962;SDS011;469;48.770;9.176;2022-10-30T06:53:10;39.67;;;5.60;;
962;SDS011;469;48.770;9.176;2022-10-30T06:55:37;14.18;;;6.15;;
962;SDS011;469;48.770;9.176;2022-10-30T06:58:05;13.23;;;5.32;;
962;SDS011;469;48.770;9.176;2022-10-30T07:00:32;17.48;;;6.30;;
962;SDS011;469;48.770;9.176;2022-10-30T07:03:00;16.02;;;5.50;;
962;SDS011;469;48.770;9.176;2022-10-30T07:05:28;17.23;;;4.72;;
962;SDS011;469;48.770;9.176;2022-10-30T07:07:56;20.75;;;4.72;;
962;SDS011;469;48.770;9.176;2022-10-30T07:10:23;15.63;;;5.30;;
962;SDS011;469;48.770;9.176;2022-10-30T07:12:53;16.25;;;5.07;;
962;SDS011;469;48.770;9.176;2022-10-30T07:15:22;15.60;;;4.65;;
962;SDS011;469;48.770;9.176;2022-10-30T07:17:53;19.50;;;6.03;;
962;SDS011;469;48.770;9.176;2022-10-30T07:20:20;18.58;;;5.38;;
962;SDS011;469;48.770;9.176;2022-10-30T07:22:47;16.50;;;4.80;;
962;SDS011;469;48.770;9.176;2022-10-30T07:25:14;14.80;;;4.78;;
962;SDS011;469;48.770;9.176;2022-10-30T07:27:41;18.95;;;5.50;;
962;SDS011;469;48.770;9.176;2022-10-30T07:30:09;13.50;;;5.32;;
962;SDS011;469;48.770;9.176;2022-10-30T07:32:38;18.05;;;5.80;;
962;SDS011;469;48.770;9.176;2022-10-30T07:35:05;12.02;;;4.53;;
962;SDS011;469;48.770;9.176;2022-10-30T07:37:33;15.20;;;5.53;;
962;SDS011;469;48.770;9.176;2022-10-30T07:40:00;17.25;;;5.05;;
962;SDS011;469;48.770;9.176;2022-10-30T07:42:27;21.60;;;5.45;;
962;SDS011;469;48.770;9.176;2022-10-30T07:44:54;17.25;;;5.70;;
962;SDS011;469;48.770;9.176;2022-10-30T07:47:21;16.00;;;4.40;;
962;SDS011;469;48.770;9.176;2022-10-30T07:49:50;11.52;;;4.30;;
962;SDS011;469;48.770;9.176;2022-10-30T07:52:17;25.10;;;5.03;;
962;SDS011;469;48.770;9.176;2022-10-30T07:54:44;21.15;;;5.03;;
962;SDS011;469;48.770;9.176;2022-10-30T07:57:11;21.73;;;4.80;;
962;SDS011;469;48.770;9.176;2022-10-30T07:59:38;24.15;;;5.20;;
962;SDS011;469;48.770;9.176;2022-10-30T08:02:05;16.85;;;4.40;;
962;SDS011;469;48.770;9.176;2022-10-30T08:04:33;13.32;;;4.72;;
962;SDS011;469;48.770;9.176;2022-10-30T08:07:02;21.10;;;5.15;;
962;SDS011;469;48.770;9.176;2022-10-30T08:09:29;16.05;;;4.90;;
962;SDS011;469;48.770;9.176;2022-10-30T08:11:56;18.20;;;5.00;;
962;SDS011;469;48.770;9.176;2022-10-30T08:14:23;14.00;;;4.75;;
962;SDS011;469;48.770;9.176;2022-10-30T08:16:50;13.70;;;5.22;;
962;SDS011;469;48.770;9.176;2022-10-30T08:19:17;16.65;;;5.25;;
962;SDS011;469;48.770;9.176;2022-10-30T08:21:44;16.52;;;5.18;;
962;SDS011;469;48.770;9.176;2022-10-30T08:24:12;13.05;;;5.00;;
962;SDS011;469;48.770;9.176;2022-10-30T08:26:39;12.57;;;4.75;;
962;SDS011;469;48.770;9.176;2022-10-30T08:29:06;19.00;;;5.07;;
962;SDS011;469;48.770;9.176;2022-10-30T08:31:33;15.30;;;5.03;;
962;SDS011;469;48.770;9.176;2022-10-30T08:34:00;16.00;;;5.25;;
962;SDS011;469;48.770;9.176;2022-10-30T08:36:28;20.75;;;4.82;;
962;SDS011;469;48.770;9.176;2022-10-30T08:38:55;15.98;;;4.93;;
962;SDS011;469;48.770;9.176;2022-10-30T08:41:24;19.25;;;6.18;;
962;SDS011;469;48.770;9.176;2022-10-30T08:43:51;13.98;;;4.75;;
962;SDS011;469;48.770;9.176;2022-10-30T08:46:18;17.67;;;4.85;;
962;SDS011;469;48.770;9.176;2022-10-30T08:48:45;20.80;;;4.20;;
962;SDS011;469;48.770;9.176;2022-10-30T08:51:12;23.20;;;6.10;;
962;SDS011;469;48.770;9.176;2022-10-30T08:53:39;22.83;;;4.82;;
962;SDS011;469;48.770;9.176;2022-10-30T08:56:06;13.02;;;4.97;;
962;SDS011;469;48.770;9.176;2022-10-30T08:58:35;20.60;;;4.63;;
962;SDS011;469;48.770;9.176;2022-10-30T09:01:02;17.50;;;5.18;;
962;SDS011;469;48.770;9.176;2022-10-30T09:03:29;23.55;;;5.57;;
962;SDS011;469;48.770;9.176;2022-10-30T09:05:56;15.95;;;5.75;;
962;SDS011;469;48.770;9.176;2022-10-30T09:08:25;16.67;;;4.55;;
962;SDS011;469;48.770;9.176;2022-10-30T09:10:53;26.73;;;5.55;;
962;SDS011;469;48.770;9.176;2022-10-30T09:13:20;15.90;;;5.35;;
962;SDS011;469;48.770;9.176;2022-10-30T09:15:49;16.77;;;5.40;;
962;SDS011;469;48.770;9.176;2022-10-30T09:18:17;16.20;;;5.72;;
962;SDS011;469;48.770;9.176;2022-10-30T09:20:47;16.42;;;5.13;;
962;SDS011;469;48.770;9.176;2022-10-30T09:23:14;13.20;;;5.00;;
962;SDS011;469;48.770;9.176;2022-10-30T09:25:41;13.55;;;4.50;;
962;SDS011;469;48.770;9.176;2022-10-30T09:28:08;15.30;;;4.90;;
962;SDS011;469;48.770;9.176;2022-10-30T09:30:35;15.25;;;4.80;;
962;SDS011;469;48.770;9.176;2022-10-30T09:33:03;23.90;;;5.85;;
962;SDS011;469;48.770;9.176;2022-10-30T09:35:31;14.82;;;5.53;;
962;SDS011;469;48.770;9.176;2022-10-30T09:37:58;19.00;;;5.95;;
962;SDS011;469;48.770;9.176;2022-10-30T09:40:26;14.77;;;4.95;;
962;SDS011;469;48.770;9.176;2022-10-30T09:42:58;20.38;;;5.07;;
962;SDS011;469;48.770;9.176;2022-10-30T09:48:26;25.88;;;5.38;;
962;SDS011;469;48.770;9.176;2022-10-30T09:51:00;15.60;;;5.35;;
962;SDS011;469;48.770;9.176;2022-10-30T09:53:35;17.95;;;5.35;;
962;SDS011;469;48.770;9.176;2022-10-30T09:56:07;13.90;;;4.60;;
962;SDS011;469;48.770;9.176;2022-10-30T09:58:50;14.25;;;4.82;;
962;SDS011;469;48.770;9.176;2022-10-30T10:01:24;22.77;;;5.65;;
962;SDS011;469;48.770;9.176;2022-10-30T10:03:56;23.27;;;6.47;;
962;SDS011;469;48.770;9.176;2022-10-30T10:06:26;13.20;;;5.10;;
962;SDS011;469;48.770;9.176;2022-10-30T10:08:55;16.90;;;4.70;;
962;SDS011;469;48.770;9.176;2022-10-30T10:11:24;15.98;;;5.53;;
962;SDS011;469;48.770;9.176;2022-10-30T10:13:52;22.50;;;5.13;;
962;SDS011;469;48.770;9.176;2022-10-30T10:16:21;24.08;;;5.50;;
962;SDS011;469;48.770;9.176;2022-10-30T10:18:51;14.57;;;5.50;;
962;SDS011;469;48.770;9.176;2022-10-30T10:21:24;17.25;;;4.85;;
962;SDS011;469;48.770;9.176;2022-10-30T10:23:52;13.52;;;4.90;;
962;SDS011;469;48.770;9.176;2022-10-30T10:26:25;14.55;;;4.57;;
962;SDS011;469;48.770;9.176;2022-10-30T10:29:03;19.13;;;5.20;;
962;SDS011;469;48.770;9.176;2022-10-30T10:31:39;13.48;;;5.57;;
962;SDS011;469;48.770;9.176;2022-10-30T10:34:15;15.48;;;4.70;;
962;SDS011;469;48.770;9.176;2022-10-30T10:36:47;16.88;;;5.55;;
962;SDS011;469;48.770;9.176;2022-10-30T10:39:20;24.85;;;5.85;;
962;SDS011;469;48.770;9.176;2022-10-30T10:41:54;29.05;;;5.70;;
962;SDS011;469;48.770;9.176;2022-10-30T10:44:33;13.13;;;4.65;;
962;SDS011;469;48.770;9.176;2022-10-30T10:47:09;23.00;;;5.43;;
962;SDS011;469;48.770;9.176;2022-10-30T10:49:43;12.60;;;5.15;;
962;SDS011;469;48.770;9.176;2022-10-30T10:52:14;17.83;;;5.85;;
962;SDS011;469;48.770;9.176;2022-10-30T10:54:45;14.85;;;5.47;;
962;SDS011;469;48.770;9.176;2022-10-30T10:57:16;13.13;;;5.30;;
962;SDS011;469;48.770;9.176;2022-10-30T10:59:47;16.63;;;6.25;;
962;SDS011;469;48.770;9.176;2022-10-30T11:02:23;23.90;;;5.53;;
962;SDS011;469;48.770;9.176;2022-10-30T11:04:54;16.05;;;5.20;;
962;SDS011;469;48.770;9.176;2022-10-30T11:07:25;17.10;;;4.82;;
962;SDS011;469;48.770;9.176;2022-10-30T11:09:55;17.45;;;5.55;;
962;SDS011;469;48.770;9.176;2022-10-30T11:12:24;16.48;;;4.60;;
962;SDS011;469;48.770;9.176;2022-10-30T11:14:51;21.52;;;6.10;;
962;SDS011;469;48.770;9.176;2022-10-30T11:17:19;14.05;;;5.00;;
962;SDS011;469;48.770;9.176;2022-10-30T11:19:47;12.38;;;5.13;;
962;SDS011;469;48.770;9.176;2022-10-30T11:22:17;13.55;;;4.97;;
962;SDS011;469;48.770;9.176;2022-10-30T11:24:48;20.13;;;4.85;;
962;SDS011;469;48.770;9.176;2022-10-30T11:27:15;17.60;;;6.05;;
962;SDS011;469;48.770;9.176;2022-10-30T11:29:46;16.05;;;5.20;;
962;SDS011;469;48.770;9.176;2022-10-30T11:32:16;13.57;;;5.05;;
962;SDS011;469;48.770;9.176;2022-10-30T11:34:45;12.98;;;5.05;;
962;SDS011;469;48.770;9.176;2022-10-30T11:37:27;19.92;;;5.10;;
962;SDS011;469;48.770;9.176;2022-10-30T11:40:02;13.10;;;4.70;;
962;SDS011;469;48.770;9.176;2022-10-30T11:42:29;19.48;;;5.57;;
962;SDS011;469;48.770;9.176;2022-10-30T11:44:58;22.08;;;5.90;;
962;SDS011;469;48.770;9.176;2022-10-30T11:47:27;16.77;;;5.35;;
962;SDS011;469;48.770;9.176;2022-10-30T11:49:57;13.85;;;4.57;;
962;SDS011;469;48.770;9.176;2022-10-30T11:52:25;21.15;;;5.72;;
962;SDS011;469;48.770;9.176;2022-10-30T11:54:53;25.90;;;8.57;;
962;SDS011;469;48.770;9.176;2022-10-30T11:57:23;18.83;;;6.40;;
962;SDS011;469;48.770;9.176;2022-10-30T11:59:53;19.70;;;5.97;;
962;SDS011;469;48.770;9.176;2022-10-30T12:02:21;20.08;;;5.70;;
962;SDS011;469;48.770;9.176;2022-10-30T12:04:52;17.80;;;5.70;;
962;SDS011;469;48.770;9.176;2022-10-30T12:07:23;16.40;;;4.53;;
962;SDS011;469;48.770;9.176;2022-10-30T12:09:51;20.30;;;6.70;;
962;SDS011;469;48.770;9.176;2022-10-30T12:12:20;18.75;;;6.70;;
962;SDS011;469;48.770;9.176;2022-10-30T12:14:49;18.13;;;5.72;;
962;SDS011;469;48.770;9.176;2022-10-30T12:17:17;18.15;;;6.40;;
962;SDS011;469;48.770;9.176;2022-10-30T12:19:47;16.65;;;5.53;;
962;SDS011;469;48.770;9.176;2022-10-30T12:22:22;15.65;;;6.25;;
962;SDS011;469;48.770;9.176;2022-10-30T12:24:49;11.30;;;5.78;;
962;SDS011;469;48.770;9.176;2022-10-30T12:27:17;15.20;;;6.18;;
962;SDS011;469;48.770;9.176;2022-10-30T12:29:54;21.35;;;7.43;;
962;SDS011;469;48.770;9.176;2022-10-30T12:32:27;14.55;;;5.72;;
962;SDS011;469;48.770;9.176;2022-10-30T12:34:58;17.42;;;6.38;;
962;SDS011;469;48.770;9.176;2022-10-30T12:37:26;23.02;;;7.35;;
962;SDS011;469;48.770;9.176;2022-10-30T12:39:56;26.25;;;6.47;;
962;SDS011;469;48.770;9.176;2022-10-30T12:42:24;18.92;;;6.93;;
962;SDS011;469;48.770;9.176;2022-10-30T12:44:53;16.95;;;6.40;;
962;SDS011;469;48.770;9.176;2022-10-30T12:47:23;20.88;;;7.22;;
962;SDS011;469;48.770;9.176;2022-10-30T12:49:55;23.08;;;7.45;;
962;SDS011;469;48.770;9.176;2022-10-30T12:52:24;25.90;;;9.38;;
962;SDS011;469;48.770;9.176;2022-10-30T12:54:56;21.67;;;8.32;;
962;SDS011;469;48.770;9.176;2022-10-30T12:57:25;21.88;;;6.60;;
962;SDS011;469;48.770;9.176;2022-10-30T12:59:58;15.57;;;5.63;;
962;SDS011;469;48.770;9.176;2022-10-30T13:05:18;21.75;;;5.30;;
962;SDS011;469;48.770;9.176;2022-10-30T13:07:49;16.42;;;6.45;;
962;SDS011;469;48.770;9.176;2022-10-30T13:10:21;26.02;;;7.07;;
962;SDS011;469;48.770;9.176;2022-10-30T13:12:48;17.05;;;6.10;;
962;SDS011;469;48.770;9.176;2022-10-30T13:15:20;16.92;;;6.15;;
962;SDS011;469;48.770;9.176;2022-10-30T13:17:48;16.92;;;6.43;;
962;SDS011;469;48.770;9.176;2022-10-30T13:20:17;26.10;;;6.72;;
962;SDS011;469;48.770;9.176;2022-10-30T13:22:46;19.23;;;6.55;;
962;SDS011;469;48.770;9.176;2022-10-30T13:25:16;18.05;;;5.93;;
962;SDS011;469;48.770;9.176;2022-10-30T13:27:47;18.23;;;5.75;;
962;SDS011;469;48.770;9.176;2022-10-30T13:30:17;26.30;;;6.47;;
962;SDS011;469;48.770;9.176;2022-10-30T13:32:51;18.08;;;7.13;;
962;SDS011;469;48.770;9.176;2022-10-30T13:35:26;17.35;;;7.00;;
962;SDS011;469;48.770;9.176;2022-10-30T13:37:55;21.17;;;7.68;;
962;SDS011;469;48.770;9.176;2022-10-30T13:40:26;17.25;;;5.40;;
962;SDS011;469;48.770;9.176;2022-10-30T13:42:58;18.95;;;6.20;;
962;SDS011;469;48.770;9.176;2022-10-30T13:45:31;24.98;;;6.50;;
962;SDS011;469;48.770;9.176;2022-10-30T13:48:03;22.05;;;5.93;;
962;SDS011;469;48.770;9.176;2022-10-30T13:50:37;20.25;;;5.57;;
962;SDS011;469;48.770;9.176;2022-10-30T13:53:09;23.77;;;6.30;;
962;SDS011;469;48.770;9.176;2022-10-30T13:55:39;17.95;;;6.13;;
962;SDS011;469;48.770;9.176;2022-10-30T13:58:14;16.33;;;5.65;;
962;SDS011;469;48.770;9.176;2022-10-30T14:00:55;26.98;;;5.82;;
962;SDS011;469;48.770;9.176;2022-10-30T14:03:30;22.77;;;5.90;;
962;SDS011;469;48.770;9.176;2022-10-30T14:06:05;22.95;;;8.57;;
962;SDS011;469;48.770;9.176;2022-10-30T14:08:37;18.90;;;8.05;;
962;SDS011;469;48.770;9.176;2022-10-30T14:11:06;21.45;;;7.40;;
962;SDS011;469;48.770;9.176;2022-10-30T14:13:43;18.10;;;6.90;;
962;SDS011;469;48.770;9.176;2022-10-30T14:18:59;19.20;;;6.03;;
962;SDS011;469;48.770;9.176;2022-10-30T14:24:18;20.55;;;6.22;;
962;SDS011;469;48.770;9.176;2022-10-30T14:26:47;18.33;;;7.70;;
962;SDS011;469;48.770;9.176;2022-10-30T14:29:36;20.30;;;7.68;;
962;SDS011;469;48.770;9.176;2022-10-30T14:34:55;19.13;;;8.13;;
962;SDS011;469;48.770;9.176;2022-10-30T14:42:50;23.30;;;10.40;;
962;SDS011;469;48.770;9.176;2022-10-30T14:45:19;20.00;;;7.85;;
962;SDS011;469;48.770;9.176;2022-10-30T14:47:51;22.58;;;8.30;;
962;SDS011;469;48.770;9.176;2022-10-30T14:53:17;19.83;;;9.23;;
962;SDS011;469;48.770;9.176;2022-10-30T14:55:49;21.48;;;7.82;;
962;SDS011;469;48.770;9.176;2022-10-30T14:58:19;20.75;;;9.30;;
962;SDS011;469;48.770;9.176;2022-10-30T15:00:47;15.05;;;5.88;;
962;SDS011;469;48.770;9.176;2022-10-30T15:03:21;12.20;;;6.30;;
962;SDS011;469;48.770;9.176;2022-10-30T15:05:50;13.50;;;4.90;;
962;SDS011;469;48.770;9.176;2022-10-30T15:08:24;14.43;;;5.72;;
962;SDS011;469;48.770;9.176;2022-10-30T15:10:59;14.63;;;5.97;;
962;SDS011;469;48.770;9.176;2022-10-30T15:13:31;16.55;;;6.40;;
962;SDS011;469;48.770;9.176;2022-10-30T15:15:58;19.85;;;7.30;;
962;SDS011;469;48.770;9.176;2022-10-30T15:18:26;16.73;;;7.40;;
962;SDS011;469;48.770;9.176;2022-10-30T15:20:54;16.42;;;7.65;;
962;SDS011;469;48.770;9.176;2022-10-30T15:23:23;17.10;;;6.95;;
962;SDS011;469;48.770;9.176;2022-10-30T15:25:52;17.10;;;7.63;;
962;SDS011;469;48.770;9.176;2022-10-30T15:28:20;16.10;;;6.93;;
962;SDS011;469;48.770;9.176;2022-10-30T15:30:59;19.92;;;7.25;;
962;SDS011;469;48.770;9.176;2022-10-30T15:33:27;17.92;;;7.05;;
962;SDS011;469;48.770;9.176;2022-10-30T15:35:55;23.67;;;8.40;;
962;SDS011;469;48.770;9.176;2022-10-30T15:38:22;19.42;;;6.82;;
962;SDS011;469;48.770;9.176;2022-10-30T15:40:50;20.50;;;7.70;;
962;SDS011;469;48.770;9.176;2022-10-30T15:43:22;23.83;;;7.20;;
962;SDS011;469;48.770;9.176;2022-10-30T15:45:51;16.83;;;7.15;;
962;SDS011;469;48.770;9.176;2022-10-30T15:48:22;19.10;;;7.03;;
962;SDS011;469;48.770;9.176;2022-10-30T15:50:56;19.77;;;6.53;;
962;SDS011;469;48.770;9.176;2022-10-30T15:53:26;14.60;;;6.75;;
962;SDS011;469;48.770;9.176;2022-10-30T15:55:56;22.75;;;8.25;;
962;SDS011;469;48.770;9.176;2022-10-30T15:58:23;15.00;;;6.93;;
962;SDS011;469;48.770;9.176;2022-10-30T16:00:54;18.40;;;7.35;;
962;SDS011;469;48.770;9.176;2022-10-30T16:03:23;16.90;;;7.32;;
962;SDS011;469;48.770;9.176;2022-10-30T16:05:50;23.73;;;9.40;;
962;SDS011;469;48.770;9.176;2022-10-30T16:08:28;24.38;;;7.53;;
962;SDS011;469;48.770;9.176;2022-10-30T16:10:55;17.35;;;8.25;;
962;SDS011;469;48.770;9.176;2022-10-30T16:13:27;18.67;;;9.07;;
962;SDS011;469;48.770;9.176;2022-10-30T16:15:54;21.95;;;8.40;;
962;SDS011;469;48.770;9.176;2022-10-30T16:18:23;23.20;;;8.57;;
962;SDS011;469;48.770;9.176;2022-10-30T16:20:52;20.38;;;7.63;;
962;SDS011;469;48.770;9.176;2022-10-30T16:23:19;21.45;;;8.20;;